Time;durP1;ratioP1;P1;durP2;ratioP2;P2;SDS_P1;SDS_P2;PMS_P1;PMS_P2;Temp;Humidity;BMP_temperature;BMP_pressure;BME280_temperature;BME280_humidity;BME280_pressure;Samples;Min_cycle;Max_cycle;Signal;HPM_P1;HPM_P2
2022/04/20 00:02:22;;;;;;;7.67;2.50;;;;;;;9.89;45.54;98154.78;5025394;28;20249;-57
2022/04/20 00:04:48;;;;;;;4.50;2.63;;;;;;;9.83;45.27;98152.81;5042925;28;20211;-57
2022/04/20 00:07:15;;;;;;;4.70;2.97;;;;;;;9.79;45.22;98154.91;5040554;28;20191;-57
2022/04/20 00:09:42;;;;;;;5.50;2.83;;;;;;;9.77;44.66;98150.84;5039946;28;20275;-57
2022/04/20 00:12:09;;;;;;;4.13;2.90;;;;;;;9.73;45.07;98148.53;5044664;28;20697;-57
2022/04/20 00:14:36;;;;;;;9.13;2.60;;;;;;;9.77;44.61;98143.81;5044767;28;20407;-57
2022/04/20 00:17:05;;;;;;;3.53;2.70;;;;;;;9.77;44.82;98149.03;5045211;28;20194;-57
2022/04/20 00:19:32;;;;;;;3.43;2.37;;;;;;;9.68;44.97;98149.97;5052897;28;20280;-57
2022/04/20 00:21:59;;;;;;;5.93;2.37;;;;;;;9.66;44.79;98150.16;5052647;28;20189;-57
2022/04/20 00:24:26;;;;;;;4.10;2.50;;;;;;;9.51;45.31;98146.50;5052973;28;20263;-58
2022/04/20 00:26:52;;;;;;;5.53;2.47;;;;;;;9.43;45.09;98152.50;5052745;28;20361;-57
2022/04/20 00:29:19;;;;;;;8.13;2.87;;;;;;;9.38;45.54;98152.13;5052963;28;20184;-58
2022/04/20 00:31:46;;;;;;;4.00;2.23;;;;;;;9.24;46.49;98150.91;5050055;28;20186;-57
2022/04/20 00:34:14;;;;;;;3.97;2.23;;;;;;;9.04;47.16;98147.69;5044350;28;20219;-58
2022/04/20 00:36:41;;;;;;;3.03;2.40;;;;;;;8.92;47.87;98147.13;5032482;28;20282;-58
2022/04/20 00:39:08;;;;;;;3.60;2.40;;;;;;;8.78;48.66;98146.72;5031243;28;20204;-57
2022/04/20 00:41:35;;;;;;;3.70;2.50;;;;;;;8.70;48.40;98154.47;5032043;28;20190;-58
2022/04/20 00:44:03;;;;;;;3.40;2.40;;;;;;;8.65;49.01;98156.69;5031490;28;20243;-57
2022/04/20 00:46:32;;;;;;;5.03;2.50;;;;;;;8.57;48.27;98157.41;5030498;28;20205;-57
2022/04/20 00:49:00;;;;;;;5.77;2.30;;;;;;;8.48;49.65;98158.31;5031174;28;20652;-57
2022/04/20 00:51:31;;;;;;;3.23;2.50;;;;;;;8.35;51.04;98153.47;5027003;28;20196;-57
2022/04/20 00:54:00;;;;;;;8.23;2.43;;;;;;;8.26;50.34;98155.19;5030840;28;20277;-57
2022/04/20 00:56:27;;;;;;;2.53;2.07;;;;;;;8.15;50.46;98158.78;5031291;28;20192;-57
2022/04/20 00:58:56;;;;;;;4.40;2.63;;;;;;;8.05;50.62;98156.25;5031408;28;20202;-57
2022/04/20 01:01:26;;;;;;;7.83;2.53;;;;;;;8.03;51.42;98159.97;5029805;28;20204;-57
2022/04/20 01:03:53;;;;;;;4.13;2.27;;;;;;;7.91;50.70;98157.59;5031003;28;20231;-57
2022/04/20 01:06:31;;;;;;;3.77;2.17;;;;;;;7.82;51.39;98158.47;5030939;28;20218;-57
2022/04/20 01:09:21;;;;;;;4.13;2.47;;;;;;;7.69;51.70;98153.56;5024211;28;20208;-57
2022/04/20 01:12:20;;;;;;;3.30;2.20;;;;;;;7.85;50.32;98152.13;4978368;28;20558;-57
2022/04/20 01:15:14;;;;;;;3.67;2.60;;;;;;;7.85;51.03;98146.94;5030013;28;20194;-57
2022/04/20 01:18:00;;;;;;;4.33;2.70;;;;;;;8.05;49.36;98155.44;5031262;28;20207;-57
2022/04/20 01:20:48;;;;;;;3.57;2.63;;;;;;;8.05;50.05;98143.28;5027148;28;20656;-57
2022/04/20 01:23:33;;;;;;;3.60;2.53;;;;;;;8.04;49.48;98146.00;5032091;28;20230;-57
2022/04/20 01:26:30;;;;;;;4.90;2.43;;;;;;;7.92;51.22;98143.63;5030364;28;20198;-57
2022/04/20 01:29:17;;;;;;;4.13;2.60;;;;;;;7.97;49.67;98146.59;5031292;28;20828;-57
2022/04/20 01:32:10;;;;;;;5.07;2.40;;;;;;;8.08;50.89;98155.13;5030681;28;20278;-57
2022/04/20 01:34:52;;;;;;;2.63;2.03;;;;;;;7.89;51.09;98154.31;5030472;28;20756;-57
2022/04/20 01:37:20;;;;;;;6.73;2.40;;;;;;;7.73;52.20;98146.34;5031178;28;20695;-57
2022/04/20 01:39:47;;;;;;;3.87;2.50;;;;;;;7.58;54.01;98149.41;5029187;28;20221;-57
2022/04/20 01:42:14;;;;;;;5.47;2.23;;;;;;;7.44;53.04;98150.66;5030131;28;20229;-57
2022/04/20 01:44:49;;;;;;;3.43;2.23;;;;;;;7.32;54.84;98150.03;5029890;28;20215;-57
2022/04/20 01:47:39;;;;;;;4.13;2.40;;;;;;;7.13;54.54;98155.28;5025681;28;20683;-57
2022/04/20 01:50:28;;;;;;;4.33;1.80;;;;;;;7.01;55.66;98155.44;5029488;28;20646;-57
2022/04/20 01:53:25;;;;;;;5.73;2.87;;;;;;;6.92;55.10;98154.50;5015041;28;20699;-57
2022/04/20 01:56:18;;;;;;;4.87;2.07;;;;;;;6.78;55.85;98142.78;5002526;28;20202;-57
2022/04/20 01:59:00;;;;;;;3.43;2.50;;;;;;;6.78;54.91;98145.38;5029727;28;20206;-57
2022/04/20 02:04:32;;;;;;;3.47;2.40;;;;;;;6.84;55.82;98143.19;5010333;28;20234;-57
2022/04/20 02:06:58;;;;;;;6.30;2.63;;;;;;;6.88;55.32;98141.97;5009797;28;20261;-57
2022/04/20 02:09:35;;;;;;;7.53;2.67;;;;;;;6.98;54.25;98147.94;5010061;28;20214;-57
2022/04/20 02:12:05;;;;;;;6.87;2.70;;;;;;;7.04;53.76;98149.16;5009978;28;20725;-57
2022/04/20 02:14:53;;;;;;;3.50;2.77;;;;;;;6.98;53.54;98147.94;5026170;28;20219;-57
2022/04/20 02:17:39;;;;;;;5.33;2.53;;;;;;;7.10;53.25;98151.19;5027983;28;20283;-57
2022/04/20 02:20:11;;;;;;;3.77;2.73;;;;;;;7.26;53.87;98148.00;5028734;28;20220;-57
2022/04/20 02:22:38;;;;;;;4.23;2.50;;;;;;;7.29;53.71;98144.31;5029618;28;20300;-57
2022/04/20 02:25:08;;;;;;;4.27;2.70;;;;;;;7.30;53.46;98146.75;5029783;28;20576;-58
2022/04/20 02:27:35;;;;;;;7.03;3.17;;;;;;;7.23;53.32;98146.53;5029556;28;20243;-58
2022/04/20 02:30:02;;;;;;;3.87;2.53;;;;;;;7.28;54.36;98147.88;5053850;22;20271;-57
2022/04/20 02:32:28;;;;;;;3.50;2.57;;;;;;;7.17;53.82;98147.09;5082945;28;20673;-57
2022/04/20 02:34:55;;;;;;;4.93;2.47;;;;;;;7.05;54.60;98149.00;5084216;28;20562;-57
2022/04/20 02:37:23;;;;;;;4.20;2.50;;;;;;;7.00;55.22;98146.00;5080257;28;20241;-57
2022/04/20 02:39:53;;;;;;;4.53;2.50;;;;;;;6.92;55.08;98138.09;5081282;28;20205;-57
2022/04/20 02:42:22;;;;;;;3.17;2.20;;;;;;;6.84;56.63;98138.81;5089518;28;20253;-58
2022/04/20 02:44:49;;;;;;;6.30;2.90;;;;;;;6.78;55.71;98137.59;5090688;28;20208;-58
2022/04/20 02:47:17;;;;;;;4.10;2.70;;;;;;;6.69;55.93;98137.59;5083453;28;20228;-58
2022/04/20 02:49:44;;;;;;;4.33;2.80;;;;;;;6.62;56.11;98138.16;5105056;28;20219;-58
2022/04/20 02:52:12;;;;;;;3.93;2.83;;;;;;;6.63;56.08;98134.59;5090774;28;20809;-58
2022/04/20 02:54:39;;;;;;;5.47;2.60;;;;;;;6.63;57.17;98129.41;5089773;28;20203;-58
2022/04/20 02:57:06;;;;;;;6.63;3.10;;;;;;;6.64;56.59;98131.06;5091981;28;20196;-58
2022/04/20 02:59:35;;;;;;;4.00;3.33;;;;;;;6.68;56.58;98138.56;5091785;28;20238;-58
2022/04/20 03:02:04;;;;;;;5.40;3.10;;;;;;;6.60;56.74;98134.06;5092591;28;20192;-58
2022/04/20 03:04:32;;;;;;;5.50;3.13;;;;;;;6.58;57.24;98136.78;5092120;28;20207;-57
2022/04/20 03:07:00;;;;;;;6.53;3.40;;;;;;;6.61;57.07;98143.50;5092345;28;20399;-58
2022/04/20 03:09:36;;;;;;;6.80;3.17;;;;;;;6.58;57.06;98146.34;5091771;28;20235;-58
2022/04/20 03:12:07;;;;;;;3.47;2.90;;;;;;;6.57;58.43;98150.72;5092201;28;20206;-57
2022/04/20 03:14:38;;;;;;;5.37;2.87;;;;;;;6.49;58.91;98147.97;5092292;28;20184;-57
2022/04/20 03:17:05;;;;;;;5.20;3.17;;;;;;;6.42;58.58;98150.31;5092320;28;20218;-57
2022/04/20 03:19:32;;;;;;;6.10;3.20;;;;;;;6.35;59.03;98147.47;5091713;28;20191;-58
2022/04/20 03:22:00;;;;;;;7.27;3.63;;;;;;;6.35;59.10;98152.63;5093141;28;20186;-56
2022/04/20 03:24:29;;;;;;;7.23;3.60;;;;;;;6.36;58.69;98150.84;5091631;28;20713;-58
2022/04/20 03:27:11;;;;;;;5.00;3.50;;;;;;;6.33;58.93;98149.38;5091838;28;20609;-57
2022/04/20 03:29:46;;;;;;;4.73;3.37;;;;;;;6.31;59.16;98148.69;5091075;28;20203;-57
2022/04/20 03:32:13;;;;;;;5.97;3.80;;;;;;;6.32;59.05;98152.06;5093094;28;20181;-55
2022/04/20 03:34:41;;;;;;;6.50;3.80;;;;;;;6.28;60.27;98151.53;5091634;28;20433;-58
2022/04/20 03:37:10;;;;;;;5.17;3.70;;;;;;;6.22;59.65;98157.25;5091559;28;20192;-58
2022/04/20 03:39:41;;;;;;;5.13;3.93;;;;;;;6.22;60.00;98159.03;5090364;28;20265;-58
2022/04/20 03:42:11;;;;;;;6.57;3.70;;;;;;;6.24;60.52;98150.16;5091876;28;20613;-57
2022/04/20 03:44:40;;;;;;;6.70;3.83;;;;;;;6.39;59.65;98153.19;5089232;28;20696;-57
2022/04/20 03:47:08;;;;;;;5.77;4.00;;;;;;;6.54;58.27;98161.34;5091657;28;20292;-58
2022/04/20 03:49:35;;;;;;;6.53;3.93;;;;;;;6.61;59.00;98153.88;5088163;28;20197;-58
2022/04/20 03:52:06;;;;;;;7.07;4.07;;;;;;;6.63;58.55;98159.72;5091513;28;20198;-56
2022/04/20 03:54:35;;;;;;;8.80;4.20;;;;;;;6.65;59.29;98163.81;5087689;28;20295;-57
2022/04/20 03:57:07;;;;;;;7.57;4.57;;;;;;;6.59;58.82;98164.34;5088697;28;20753;-56
2022/04/20 03:59:44;;;;;;;5.07;3.93;;;;;;;6.52;58.81;98168.44;5089248;28;20708;-57
2022/04/20 04:02:14;;;;;;;5.77;4.13;;;;;;;6.49;59.40;98158.34;5090636;28;20223;-56
2022/04/20 04:04:46;;;;;;;5.23;3.80;;;;;;;6.39;58.97;98158.34;5091249;28;20290;-56
2022/04/20 04:07:22;;;;;;;8.13;4.10;;;;;;;6.30;60.49;98157.41;5091319;28;20203;-57
2022/04/20 04:09:48;;;;;;;6.23;3.87;;;;;;;6.15;60.92;98156.16;5090268;28;20215;-57
2022/04/20 04:12:16;;;;;;;11.00;4.23;;;;;;;6.04;61.40;98154.47;5088594;28;20674;-56
2022/04/20 04:14:50;;;;;;;9.67;4.07;;;;;;;5.97;61.74;98156.78;5088693;28;20207;-56
2022/04/20 04:17:19;;;;;;;5.93;4.40;;;;;;;5.91;62.05;98152.94;5085719;28;20191;-57
2022/04/20 04:19:47;;;;;;;7.10;4.27;;;;;;;5.88;61.87;98154.97;5089329;28;20589;-57
2022/04/20 04:22:14;;;;;;;6.43;4.87;;;;;;;5.86;61.60;98152.50;5091092;28;20632;-56
2022/04/20 04:24:53;;;;;;;7.53;3.57;;;;;;;5.85;61.51;98150.06;5090818;28;20678;-56
2022/04/20 04:27:21;;;;;;;5.33;3.00;;;;;;;5.83;62.91;98154.56;5090731;28;20184;-56
2022/04/20 04:29:48;;;;;;;5.97;3.83;;;;;;;5.72;62.71;98158.88;5089937;28;20244;-57
2022/04/20 04:32:15;;;;;;;6.87;4.40;;;;;;;5.65;63.92;98159.56;5089288;28;20195;-56
2022/04/20 04:34:44;;;;;;;8.63;4.00;;;;;;;5.59;64.11;98161.72;5090334;28;20188;-56
2022/04/20 04:37:16;;;;;;;5.73;3.60;;;;;;;5.49;64.68;98165.19;5090649;28;20191;-56
2022/04/20 04:39:50;;;;;;;5.00;3.67;;;;;;;5.46;64.65;98167.09;5089466;28;20247;-57
2022/04/20 04:42:19;;;;;;;7.03;3.33;;;;;;;5.42;65.36;98165.72;5090617;28;20194;-57
2022/04/20 04:44:46;;;;;;;9.87;3.47;;;;;;;5.51;65.67;98168.47;5090362;28;20226;-56
2022/04/20 04:50:05;;;;;;;7.60;3.30;;;;;;;5.59;63.92;98163.47;5087866;28;20206;-57
2022/04/20 04:52:33;;;;;;;5.43;3.37;;;;;;;5.55;63.79;98165.50;5090086;28;20199;-57
2022/04/20 04:55:06;;;;;;;5.73;3.97;;;;;;;5.64;63.44;98166.47;5088031;28;20254;-57
2022/04/20 04:57:35;;;;;;;6.40;3.90;;;;;;;5.65;62.73;98165.53;5086462;28;20184;-56
2022/04/20 05:00:04;;;;;;;5.93;4.33;;;;;;;5.78;62.89;98167.06;5089669;28;20213;-57
2022/04/20 05:02:39;;;;;;;6.27;3.50;;;;;;;5.86;62.32;98167.25;5090173;28;20654;-57
2022/04/20 05:05:09;;;;;;;7.80;4.20;;;;;;;6.01;61.29;98170.28;5089879;28;20197;-57
2022/04/20 05:07:36;;;;;;;5.20;3.83;;;;;;;6.20;58.58;98161.75;5087659;28;20187;-57
2022/04/20 05:10:07;;;;;;;6.20;4.27;;;;;;;6.57;56.29;98171.47;5088919;28;20218;-56
2022/04/20 05:12:37;;;;;;;11.60;5.40;;;;;;;6.66;55.14;98177.63;5089919;28;20192;-57
2022/04/20 05:15:06;;;;;;;7.60;4.53;;;;;;;6.88;53.68;98188.66;5089039;28;20192;-57
2022/04/20 05:17:34;;;;;;;5.10;3.47;;;;;;;7.09;52.63;98183.31;5089701;28;20293;-57
2022/04/20 05:20:01;;;;;;;8.33;3.30;;;;;;;7.20;52.29;98184.91;5089030;28;20295;-57
2022/04/20 05:22:29;;;;;;;6.23;3.40;;;;;;;7.37;51.27;98191.16;5089793;28;20195;-56
2022/04/20 05:24:57;;;;;;;7.30;3.90;;;;;;;7.44;49.48;98189.63;5087098;28;20199;-57
2022/04/20 05:27:25;;;;;;;6.20;3.07;;;;;;;7.48;49.65;98196.16;5089976;28;20747;-57
2022/04/20 05:29:54;;;;;;;5.93;4.20;;;;;;;7.58;49.05;98180.56;5088166;28;20240;-56
2022/04/20 05:32:21;;;;;;;5.97;2.97;;;;;;;7.74;47.30;98192.13;5089588;28;20208;-57
2022/04/20 05:34:50;;;;;;;4.30;3.10;;;;;;;7.78;47.76;98185.69;5089481;28;20200;-57
2022/04/20 05:42:50;;;;;;;5.60;3.57;;;;;;;8.05;46.54;98200.44;5089166;28;20190;-56
2022/04/20 05:45:17;;;;;;;4.40;2.73;;;;;;;8.10;46.14;98200.84;5089217;28;20231;-56
2022/04/20 05:47:49;;;;;;;4.77;2.60;;;;;;;8.16;46.35;98203.81;5088940;28;20220;-56
2022/04/20 05:50:16;;;;;;;3.40;2.20;;;;;;;8.20;46.46;98198.16;5085712;28;20676;-56
2022/04/20 05:52:43;;;;;;;4.83;2.63;;;;;;;8.30;46.47;98203.31;5089382;28;20185;-56
2022/04/20 05:55:13;;;;;;;4.80;2.67;;;;;;;8.35;45.91;98197.66;5088764;28;20180;-56
2022/04/20 05:57:41;;;;;;;9.43;2.77;;;;;;;8.40;45.98;98206.69;5087741;28;20608;-56
2022/04/20 06:00:08;;;;;;;3.63;2.50;;;;;;;8.46;46.05;98202.66;5089521;28;20738;-56
2022/04/20 06:02:42;;;;;;;4.43;2.50;;;;;;;8.53;46.83;98206.34;5087637;28;20423;-54
2022/04/20 06:05:13;;;;;;;3.90;2.43;;;;;;;8.64;46.54;98202.69;5089141;28;20204;-54
2022/04/20 06:07:56;;;;;;;4.17;2.53;;;;;;;8.70;44.46;98204.69;5088874;28;20652;-54
2022/04/20 06:11:11;;;;;;;5.97;2.10;;;;;;;8.82;45.34;98209.69;5087587;28;20673;-53
2022/04/20 06:13:39;;;;;;;3.30;2.40;;;;;;;8.90;46.15;98211.53;5086631;28;20189;-54
2022/04/20 06:16:27;;;;;;;3.57;2.40;;;;;;;8.90;46.72;98204.53;5087669;28;20243;-54
2022/04/20 06:19:07;;;;;;;2.93;1.90;;;;;;;8.99;46.17;98206.25;5087020;28;20597;-54
2022/04/20 06:21:57;;;;;;;8.80;4.60;;;;;;;9.14;46.36;98195.28;5086942;28;20185;-54
2022/04/20 06:24:40;;;;;;;4.33;2.93;;;;;;;9.17;42.63;98200.19;5086696;28;20204;-53
2022/04/20 06:27:30;;;;;;;4.70;3.67;;;;;;;9.28;43.34;98201.72;5086944;28;20186;-54
2022/04/20 06:30:18;;;;;;;7.50;4.40;;;;;;;9.38;43.84;98199.81;5086521;28;20233;-53
2022/04/20 06:33:08;;;;;;;5.03;3.10;;;;;;;9.38;46.21;98202.44;5068942;28;20268;-53
2022/04/20 06:35:57;;;;;;;3.23;2.17;;;;;;;9.47;43.64;98205.91;5089784;28;20339;-55
2022/04/20 06:38:43;;;;;;;5.90;3.13;;;;;;;9.63;42.79;98202.56;5088339;28;20661;-54
2022/04/20 06:41:45;;;;;;;3.07;1.77;;;;;;;9.82;41.03;98203.31;5006576;28;20226;-53
2022/04/20 06:44:37;;;;;;;6.20;2.80;;;;;;;9.97;41.73;98206.13;5085165;28;20213;-54
2022/04/20 06:47:27;;;;;;;4.13;2.63;;;;;;;10.11;38.96;98210.75;5087867;28;20569;-54
2022/04/20 06:50:36;;;;;;;2.53;1.70;;;;;;;10.33;38.29;98214.56;5084472;28;20211;-53
2022/04/20 06:59:05;;;;;;;4.00;2.30;;;;;;;10.64;39.82;98215.78;5085731;28;20191;-54
2022/04/20 07:01:52;;;;;;;3.20;1.87;;;;;;;10.67;45.34;98215.47;5088374;28;20289;-54
2022/04/20 07:04:40;;;;;;;3.90;2.47;;;;;;;10.78;38.55;98214.34;5086010;28;20741;-53
2022/04/20 07:07:35;;;;;;;9.00;2.27;;;;;;;10.88;37.94;98206.34;5088254;28;20205;-53
2022/04/20 07:10:07;;;;;;;9.00;4.90;;;;;;;10.93;38.96;98201.44;5087406;28;20210;-54
2022/04/20 07:12:55;;;;;;;5.33;3.13;;;;;;;11.03;39.90;98204.72;5089211;28;20376;-54
2022/04/20 07:15:22;;;;;;;2.83;1.60;;;;;;;10.97;38.90;98209.78;5088380;28;20194;-54
2022/04/20 07:17:52;;;;;;;3.03;1.70;;;;;;;11.12;38.91;98204.69;5088239;28;20277;-54
2022/04/20 07:20:45;;;;;;;3.57;1.80;;;;;;;11.12;36.60;98208.16;5088438;28;20209;-53
2022/04/20 07:23:40;;;;;;;2.87;1.70;;;;;;;11.22;36.45;98205.34;5078433;28;20183;-54
2022/04/20 07:26:36;;;;;;;2.27;1.67;;;;;;;11.45;35.29;98207.28;5083019;28;20194;-53
2022/04/20 07:29:10;;;;;;;2.90;1.87;;;;;;;11.49;34.56;98203.34;5088295;28;20691;-54
2022/04/20 07:32:03;;;;;;;3.57;1.90;;;;;;;11.48;34.03;98199.09;5085590;28;20195;-54
2022/04/20 07:34:54;;;;;;;2.20;1.43;;;;;;;11.54;35.79;98201.03;5080874;28;20199;-54
2022/04/20 07:37:53;;;;;;;14.17;6.30;;;;;;;11.43;35.95;98191.75;5088928;28;20227;-54
2022/04/20 07:40:49;;;;;;;4.60;2.37;;;;;;;11.71;37.20;98199.19;5091236;28;20218;-54
2022/04/20 07:43:28;;;;;;;3.17;1.80;;;;;;;11.74;37.67;98187.56;5090531;28;20201;-54
2022/04/20 07:46:12;;;;;;;3.30;1.83;;;;;;;11.81;34.45;98198.97;5090338;28;20341;-53
2022/04/20 07:50:18;;;;;;;4.77;1.70;;;;;;;11.96;33.58;98196.50;5091467;28;20191;-54
2022/04/20 07:52:11;;;;;;;2.70;1.80;;;;;;;12.14;34.78;98204.09;5092648;28;20562;-53
2022/04/20 07:54:57;;;;;;;5.53;2.70;;;;;;;12.05;33.85;98192.03;5091363;28;20202;-54
2022/04/20 07:57:35;;;;;;;1.93;1.37;;;;;;;12.28;35.79;98201.75;5091215;28;20215;-53
2022/04/20 08:00:15;;;;;;;8.83;4.87;;;;;;;12.21;35.40;98197.19;5089840;28;20222;-54
2022/04/20 08:03:09;;;;;;;2.30;1.60;;;;;;;12.25;34.17;98203.72;5090198;28;20242;-54
2022/04/20 08:05:36;;;;;;;5.77;2.10;;;;;;;12.29;33.87;98203.38;5091361;28;20298;-54
2022/04/20 08:08:05;;;;;;;7.20;2.80;;;;;;;12.33;35.82;98202.06;5091265;28;20195;-55
2022/04/20 08:10:33;;;;;;;3.03;1.80;;;;;;;12.33;34.81;98196.81;5091411;28;20207;-54
2022/04/20 08:12:59;;;;;;;10.87;3.90;;;;;;;12.27;35.22;98192.28;5092325;28;20262;-54
2022/04/20 08:15:28;;;;;;;5.40;1.97;;;;;;;12.52;35.94;98193.75;5090972;28;20191;-55
2022/04/20 08:17:57;;;;;;;2.53;1.50;;;;;;;12.66;35.87;98197.41;5090882;28;20195;-54
2022/04/20 08:20:48;;;;;;;4.47;1.67;;;;;;;12.53;33.30;98197.16;5076425;28;20265;-54
2022/04/20 08:23:16;;;;;;;2.77;1.63;;;;;;;12.70;33.69;98200.50;5092384;28;20199;-53
2022/04/20 08:25:44;;;;;;;3.87;2.07;;;;;;;12.69;33.02;98206.72;5089764;28;20203;-54
2022/04/20 08:28:11;;;;;;;3.60;1.60;;;;;;;12.58;32.34;98205.31;5092110;28;20556;-54
2022/04/20 08:30:39;;;;;;;2.53;2.10;;;;;;;12.69;31.81;98204.91;5089727;28;20219;-54
2022/04/20 08:33:08;;;;;;;3.87;1.73;;;;;;;12.67;32.75;98195.63;5092134;28;20202;-54
2022/04/20 08:35:35;;;;;;;3.10;2.00;;;;;;;12.70;31.99;98206.53;5091785;28;20183;-54
2022/04/20 08:38:02;;;;;;;2.67;1.80;;;;;;;12.32;31.17;98200.41;5089291;28;20208;-54
2022/04/20 08:40:31;;;;;;;4.80;1.93;;;;;;;12.40;31.82;98193.31;5091018;28;20211;-54
2022/04/20 08:43:02;;;;;;;4.03;1.70;;;;;;;12.59;32.04;98201.72;5091942;28;20191;-54
2022/04/20 08:45:29;;;;;;;4.53;1.43;;;;;;;12.68;32.13;98207.72;5091864;28;20191;-54
2022/04/20 08:47:58;;;;;;;2.53;1.60;;;;;;;12.64;33.92;98209.06;5091480;28;20229;-54
2022/04/20 08:50:26;;;;;;;3.20;1.73;;;;;;;12.59;31.67;98190.44;5087930;28;20222;-55
2022/04/20 08:52:54;;;;;;;2.97;1.73;;;;;;;12.55;32.02;98203.88;5091396;28;20299;-55
2022/04/20 08:55:21;;;;;;;3.60;2.00;;;;;;;12.58;31.83;98201.91;5091708;28;20664;-55
2022/04/20 08:57:52;;;;;;;3.40;1.50;;;;;;;12.60;31.57;98199.94;5091788;28;20227;-54
2022/04/20 09:00:22;;;;;;;2.43;1.60;;;;;;;12.74;30.80;98196.53;5075569;28;20239;-54
2022/04/20 09:02:52;;;;;;;2.40;1.87;;;;;;;12.67;30.88;98203.47;5089514;28;20226;-54
2022/04/20 09:05:20;;;;;;;1.30;1.20;;;;;;;12.31;30.15;98196.97;5091375;28;20211;-53
2022/04/20 09:07:47;;;;;;;4.70;2.07;;;;;;;12.70;32.65;98190.84;5091654;28;20198;-54
2022/04/20 09:10:16;;;;;;;3.80;2.30;;;;;;;12.70;32.62;98195.28;5090478;28;20705;-55
2022/04/20 09:12:45;;;;;;;2.70;2.03;;;;;;;12.68;30.74;98205.09;5090422;28;20207;-54
2022/04/20 09:15:15;;;;;;;5.13;2.00;;;;;;;12.64;31.36;98195.97;5091387;28;20179;-54
2022/04/20 09:17:44;;;;;;;2.80;1.87;;;;;;;12.78;30.76;98205.66;5091425;28;20223;-55
2022/04/20 09:20:16;;;;;;;6.23;1.97;;;;;;;12.85;30.52;98201.34;5087866;28;20213;-55
2022/04/20 09:22:59;;;;;;;4.07;2.03;;;;;;;13.06;31.95;98210.34;5088328;28;20211;-55
2022/04/20 09:25:31;;;;;;;2.87;2.03;;;;;;;13.03;30.64;98202.84;5087876;28;20719;-55
2022/04/20 09:27:59;;;;;;;3.30;1.80;;;;;;;13.20;30.67;98195.66;5091277;28;20192;-54
2022/04/20 09:30:37;;;;;;;2.33;1.87;;;;;;;13.22;30.86;98192.84;5088357;28;20272;-55
2022/04/20 09:33:07;;;;;;;4.47;2.10;;;;;;;13.24;30.74;98194.31;5087006;28;20215;-55
2022/04/20 09:35:41;;;;;;;4.00;2.17;;;;;;;13.18;30.20;98197.66;5090922;28;20210;-55
2022/04/20 09:38:09;;;;;;;6.20;2.10;;;;;;;13.29;31.04;98196.41;5089021;28;20682;-53
2022/04/20 09:40:46;;;;;;;2.37;1.87;;;;;;;13.43;31.67;98185.13;5087534;28;20211;-55
2022/04/20 09:43:16;;;;;;;2.07;1.73;;;;;;;13.45;31.08;98182.31;5090977;28;20195;-54
2022/04/20 09:45:44;;;;;;;2.57;1.80;;;;;;;13.46;31.05;98178.72;5088452;28;20208;-54
2022/04/20 09:51:10;;;;;;;3.47;2.07;;;;;;;13.62;30.86;98172.50;5082537;28;21749;-52
2022/04/20 09:53:41;;;;;;;8.00;2.37;;;;;;;13.69;31.57;98177.81;5085810;28;20215;-52
2022/04/20 09:56:19;;;;;;;3.00;1.80;;;;;;;13.73;31.56;98173.81;5088292;28;20243;-52
2022/04/20 09:58:46;;;;;;;2.87;2.27;;;;;;;13.52;30.93;98171.94;5091355;28;20200;-53
2022/04/20 10:01:30;;;;;;;3.67;2.30;;;;;;;13.45;31.59;98168.41;5079268;28;20282;-52
2022/04/20 10:03:58;;;;;;;4.57;2.57;;;;;;;13.48;31.31;98170.69;5089688;28;20669;-54
2022/04/20 10:06:25;;;;;;;5.10;2.10;;;;;;;13.67;31.77;98179.81;5091229;28;20199;-53
2022/04/20 10:08:52;;;;;;;3.63;2.40;;;;;;;13.75;32.49;98171.03;5091173;28;20195;-53
2022/04/20 10:11:22;;;;;;;5.10;1.87;;;;;;;13.77;32.40;98164.59;5089941;28;20217;-53
2022/04/20 10:16:05;;;;;;;3.57;2.00;;;;;;;13.98;33.15;98166.47;5088197;28;20572;-54
2022/04/20 10:16:39;;;;;;;5.20;2.13;;;;;;;14.14;32.84;98151.50;5088250;28;20564;-54
2022/04/20 10:19:08;;;;;;;4.93;2.43;;;;;;;13.84;30.82;98152.38;5088305;28;20193;-53
2022/04/20 10:21:43;;;;;;;6.97;2.03;;;;;;;13.76;30.90;98156.94;5089495;28;20358;-53
2022/04/20 10:24:15;;;;;;;4.27;2.03;;;;;;;13.69;29.48;98155.03;5088818;28;20222;-52
2022/04/20 10:26:43;;;;;;;4.30;2.50;;;;;;;13.66;30.33;98152.78;5090303;28;20215;-53
2022/04/20 10:29:17;;;;;;;3.23;2.20;;;;;;;13.88;32.08;98160.69;5090746;28;20207;-52
2022/04/20 10:31:50;;;;;;;3.07;1.63;;;;;;;13.85;32.03;98155.81;5090045;28;20703;-54
2022/04/20 10:34:19;;;;;;;3.07;2.07;;;;;;;14.05;31.95;98149.97;5089866;28;20230;-49
2022/04/20 10:37:07;;;;;;;2.90;1.90;;;;;;;14.23;31.69;98139.88;5079689;28;20204;-54
2022/04/20 10:39:43;;;;;;;4.00;2.03;;;;;;;14.11;31.33;98142.19;5087198;28;20219;-53
2022/04/20 10:42:23;;;;;;;2.53;2.00;;;;;;;14.24;30.49;98144.13;5086900;28;20184;-55
2022/04/20 10:45:01;;;;;;;3.57;2.10;;;;;;;14.34;31.02;98148.25;5090830;28;20191;-53
2022/04/20 10:47:32;;;;;;;3.53;2.03;;;;;;;14.51;32.48;98151.44;5090658;28;20176;-55
2022/04/20 10:50:19;;;;;;;7.17;1.93;;;;;;;14.74;33.33;98143.41;5089852;28;20205;-54
2022/04/20 10:52:48;;;;;;;5.60;2.50;;;;;;;14.57;30.58;98135.75;5088022;28;20177;-53
2022/04/20 10:55:16;;;;;;;5.10;2.10;;;;;;;14.34;31.58;98130.69;5087855;28;20209;-54
2022/04/20 10:57:45;;;;;;;2.37;2.03;;;;;;;14.36;33.03;98135.75;5090812;28;20260;-54
2022/04/20 11:00:33;;;;;;;5.33;2.27;;;;;;;14.54;31.24;98116.94;5088375;28;20749;-52
2022/04/20 11:03:04;;;;;;;3.83;1.87;;;;;;;14.85;33.69;98131.56;5081018;28;20198;-54
2022/04/20 11:05:31;;;;;;;4.00;2.10;;;;;;;15.01;33.16;98130.44;5090502;28;20196;-53
2022/04/20 11:08:02;;;;;;;3.07;2.00;;;;;;;14.88;31.51;98125.94;5090774;28;20193;-54
2022/04/20 11:10:30;;;;;;;6.40;2.00;;;;;;;14.87;32.66;98122.47;5089230;28;20217;-54
2022/04/20 11:19:08;;;;;;;3.27;2.23;;;;;;;14.85;29.84;98119.22;5091435;28;20239;-54
2022/04/20 11:21:52;;;;;;;3.33;1.73;;;;;;;14.93;30.08;98117.47;5089399;28;20276;-55
2022/04/20 11:24:27;;;;;;;5.97;2.10;;;;;;;15.16;29.15;98125.13;5092389;28;20208;-54
2022/04/20 11:26:54;;;;;;;4.47;1.97;;;;;;;15.20;31.83;98127.16;5091422;28;20327;-54
2022/04/20 11:29:22;;;;;;;8.40;2.10;;;;;;;15.39;34.19;98116.94;5094060;28;20195;-54
2022/04/20 11:31:51;;;;;;;3.63;1.90;;;;;;;15.16;29.59;98104.06;5093627;28;20200;-54
2022/04/20 11:34:21;;;;;;;2.77;2.07;;;;;;;15.03;28.65;98121.38;5094514;28;20245;-54
2022/04/20 11:36:48;;;;;;;2.37;2.00;;;;;;;15.14;29.19;98119.22;5094718;28;20186;-55
2022/04/20 11:39:17;;;;;;;8.03;2.60;;;;;;;15.08;31.03;98110.28;5094504;28;20674;-54
2022/04/20 11:41:45;;;;;;;6.00;2.63;;;;;;;14.58;31.01;98103.25;5092859;28;20290;-55
2022/04/20 11:44:20;;;;;;;3.80;2.13;;;;;;;14.55;32.00;98110.69;5094453;28;20188;-54
2022/04/20 11:46:47;;;;;;;7.87;2.57;;;;;;;14.70;30.76;98113.28;5094395;28;20216;-54
2022/04/20 11:49:14;;;;;;;5.60;2.30;;;;;;;14.59;31.56;98102.25;5094212;28;20204;-53
2022/04/20 11:51:47;;;;;;;5.23;2.30;;;;;;;14.78;31.95;98081.59;5091889;28;20215;-54
2022/04/20 11:54:21;;;;;;;5.03;2.27;;;;;;;14.75;31.75;98109.06;5092165;28;20369;-54
2022/04/20 11:57:17;;;;;;;7.40;3.00;;;;;;;14.51;31.26;98096.28;5083124;28;20228;-54
2022/04/20 11:59:45;;;;;;;5.17;2.30;;;;;;;14.56;31.41;98086.88;5093347;28;20237;-54
2022/04/20 12:02:13;;;;;;;2.93;2.10;;;;;;;14.61;31.07;98078.41;5091560;28;20198;-55
2022/04/20 12:04:41;;;;;;;4.67;2.53;;;;;;;14.89;32.12;98081.06;5086815;28;20231;-55
2022/04/20 12:07:11;;;;;;;4.23;2.37;;;;;;;15.11;31.00;98096.75;5083083;28;20590;-54
2022/04/20 12:09:41;;;;;;;3.63;2.20;;;;;;;15.05;30.84;98092.28;5093269;28;20716;-54
2022/04/20 12:12:12;;;;;;;7.43;2.60;;;;;;;15.25;31.58;98087.16;5093790;28;20243;-54
2022/04/20 12:14:40;;;;;;;4.93;2.50;;;;;;;15.43;30.62;98089.25;5093654;28;20182;-54
2022/04/20 12:17:09;;;;;;;5.93;2.57;;;;;;;15.20;31.54;98095.59;5093666;28;20205;-54
2022/04/20 12:19:40;;;;;;;3.83;2.67;;;;;;;15.39;29.86;98087.19;5091476;28;20186;-54
2022/04/20 12:22:08;;;;;;;2.50;2.20;;;;;;;15.48;30.44;98072.88;5093629;28;20664;-54
2022/04/20 12:24:38;;;;;;;4.23;2.80;;;;;;;15.16;30.97;98089.09;5093479;28;20272;-54
2022/04/20 12:27:16;;;;;;;3.30;2.23;;;;;;;15.20;30.80;98090.34;5093584;28;20202;-54
2022/04/20 12:29:44;;;;;;;5.90;2.50;;;;;;;15.26;30.78;98078.25;5092346;28;20220;-54
2022/04/20 12:32:11;;;;;;;2.97;2.57;;;;;;;15.28;30.99;98084.13;5092821;28;20174;-53
2022/04/20 12:34:52;;;;;;;4.17;3.27;;;;;;;15.16;31.25;98089.09;5093239;28;20196;-53
2022/04/20 12:37:20;;;;;;;3.90;3.00;;;;;;;15.25;30.29;98088.94;5093591;28;20185;-53